Time;durP1;ratioP1;P1;durP2;ratioP2;P2;SDS_P1;SDS_P2;PMS_P1;PMS_P2;Temp;Humidity;BMP_temperature;BMP_pressure;BME280_temperature;BME280_humidity;BME280_pressure;Samples;Min_cycle;Max_cycle;Signal;HPM_P1;HPM_P2
2022/03/26 00:01:51;;;;;;;7.07;6.37;;;14.40;68.30;;;;;;5068505;28;20841;-48
2022/03/26 00:04:20;;;;;;;8.83;7.20;;;14.40;68.40;;;;;;5051087;28;20470;-46
2022/03/26 00:06:49;;;;;;;7.10;6.03;;;14.40;68.40;;;;;;5054905;28;20500;-48
2022/03/26 00:09:17;;;;;;;9.30;7.53;;;14.40;68.30;;;;;;5071743;28;20469;-48
2022/03/26 00:11:45;;;;;;;11.07;7.63;;;14.40;68.00;;;;;;5072452;28;20429;-48
2022/03/26 00:14:13;;;;;;;7.73;6.97;;;14.40;67.90;;;;;;5071254;28;20466;-46
2022/03/26 00:16:41;;;;;;;7.53;5.73;;;14.40;68.10;;;;;;5071293;28;20849;-48
2022/03/26 00:19:10;;;;;;;8.50;6.80;;;14.40;68.20;;;;;;5072121;28;20557;-47
2022/03/26 00:21:38;;;;;;;6.60;6.00;;;14.40;68.00;;;;;;5053446;28;20462;-50
2022/03/26 00:24:08;;;;;;;8.37;7.10;;;14.30;68.30;;;;;;5033066;28;20479;-50
2022/03/26 00:26:36;;;;;;;7.30;6.60;;;14.30;68.10;;;;;;5052728;28;20432;-49
2022/03/26 00:29:04;;;;;;;8.60;6.40;;;14.40;68.00;;;;;;5070220;28;20464;-47
2022/03/26 00:31:33;;;;;;;6.97;6.27;;;14.40;68.20;;;;;;5060038;28;20844;-48
2022/03/26 00:34:01;;;;;;;8.67;6.73;;;14.30;68.20;;;;;;5066302;28;20533;-48
2022/03/26 00:36:30;;;;;;;7.53;6.00;;;14.30;67.80;;;;;;5052482;28;20422;-47
2022/03/26 00:38:58;;;;;;;7.17;6.37;;;14.30;67.90;;;;;;5069787;28;20990;-47
2022/03/26 00:41:28;;;;;;;7.37;6.23;;;14.30;68.20;;;;;;5054470;28;20508;-47
2022/03/26 00:43:57;;;;;;;10.53;6.67;;;14.30;68.50;;;;;;5052060;28;20468;-49
2022/03/26 00:46:25;;;;;;;9.07;7.27;;;14.30;68.30;;;;;;5050764;28;20439;-47
2022/03/26 00:48:56;;;;;;;5.77;5.17;;;14.30;68.60;;;;;;5070774;28;21042;-48
2022/03/26 00:51:24;;;;;;;8.37;5.63;;;14.30;68.60;;;;;;5052100;28;20902;-47
2022/03/26 00:53:52;;;;;;;8.80;6.30;;;14.30;68.80;;;;;;5069236;28;20468;-47
2022/03/26 00:56:21;;;;;;;6.97;6.27;;;14.30;68.60;;;;;;5071371;28;20437;-49
2022/03/26 00:58:50;;;;;;;8.43;7.10;;;14.30;68.40;;;;;;5070174;28;20469;-49
2022/03/26 01:01:18;;;;;;;7.07;6.20;;;14.30;68.50;;;;;;5068216;28;20474;-46
2022/03/26 01:03:47;;;;;;;8.20;6.50;;;14.30;68.40;;;;;;5053732;28;21205;-47
2022/03/26 01:06:15;;;;;;;7.43;6.63;;;14.30;68.60;;;;;;5051215;28;20442;-49
2022/03/26 01:08:43;;;;;;;7.70;6.90;;;14.30;68.30;;;;;;5052498;28;20996;-49
2022/03/26 01:11:11;;;;;;;7.77;6.67;;;14.30;68.30;;;;;;5051595;28;20447;-49
2022/03/26 01:13:40;;;;;;;10.57;6.27;;;14.30;68.30;;;;;;5050207;28;20497;-50
2022/03/26 01:16:09;;;;;;;6.40;5.67;;;14.30;68.40;;;;;;5068850;28;20460;-48
2022/03/26 01:18:37;;;;;;;8.13;6.53;;;14.30;68.80;;;;;;5070854;28;20454;-49
2022/03/26 01:21:05;;;;;;;7.60;6.50;;;14.30;68.90;;;;;;5071320;28;20516;-49
2022/03/26 01:23:34;;;;;;;6.43;5.83;;;14.20;69.80;;;;;;5068299;28;20519;-48
2022/03/26 01:26:21;;;;;;;9.30;6.77;;;14.30;68.80;;;;;;5070932;28;20529;-47
2022/03/26 01:29:09;;;;;;;6.80;5.43;;;14.20;68.50;;;;;;5070878;28;20583;-49
2022/03/26 01:31:57;;;;;;;6.70;5.87;;;14.20;68.60;;;;;;5070111;28;20500;-48
2022/03/26 01:34:43;;;;;;;8.00;7.20;;;14.20;68.50;;;;;;5070252;28;20462;-46
2022/03/26 01:37:30;;;;;;;8.33;6.77;;;14.20;68.40;;;;;;5069897;28;20524;-48
2022/03/26 01:39:58;;;;;;;9.37;8.07;;;14.20;68.40;;;;;;5070251;28;20478;-48
2022/03/26 01:42:26;;;;;;;8.80;6.43;;;14.20;68.40;;;;;;5070796;28;20460;-49
2022/03/26 01:44:54;;;;;;;8.87;6.60;;;14.20;68.30;;;;;;5060078;28;20484;-47
2022/03/26 01:47:24;;;;;;;8.77;7.83;;;14.20;68.40;;;;;;5067105;28;20976;-47
2022/03/26 01:49:52;;;;;;;8.20;6.27;;;14.20;68.40;;;;;;5060653;28;20470;-48
2022/03/26 01:52:21;;;;;;;9.80;7.23;;;14.20;68.30;;;;;;5060613;28;20532;-47
2022/03/26 01:54:49;;;;;;;9.40;7.03;;;14.20;68.20;;;;;;5062741;28;20505;-48
2022/03/26 01:57:17;;;;;;;9.27;6.90;;;14.20;68.30;;;;;;5050380;28;20424;-48
2022/03/26 01:59:45;;;;;;;8.50;7.60;;;14.20;68.20;;;;;;5049722;28;20500;-46
2022/03/26 02:02:13;;;;;;;8.53;7.53;;;14.20;68.20;;;;;;5066728;28;20460;-47
2022/03/26 02:04:43;;;;;;;8.30;6.67;;;14.20;68.20;;;;;;5069109;28;21042;-48
2022/03/26 02:07:11;;;;;;;6.93;6.23;;;14.20;68.20;;;;;;5069755;28;20495;-49
2022/03/26 02:09:39;;;;;;;10.20;7.43;;;14.20;68.20;;;;;;5069020;28;20492;-47
2022/03/26 02:12:25;;;;;;;10.60;7.50;;;14.20;68.60;;;;;;5070610;28;20523;-46
2022/03/26 02:14:54;;;;;;;6.93;5.67;;;14.20;68.40;;;;;;5069720;28;20457;-47
2022/03/26 02:17:23;;;;;;;6.87;6.17;;;14.20;68.50;;;;;;5069662;28;20530;-49
2022/03/26 02:19:53;;;;;;;10.30;6.77;;;14.10;68.70;;;;;;5068999;28;20472;-48
2022/03/26 02:22:21;;;;;;;6.43;5.83;;;14.10;68.60;;;;;;5068671;28;20523;-49
2022/03/26 02:24:50;;;;;;;7.07;6.23;;;14.10;68.60;;;;;;5069233;28;20469;-48
2022/03/26 02:27:21;;;;;;;7.80;7.00;;;14.10;68.70;;;;;;5070227;28;20482;-46
2022/03/26 02:29:50;;;;;;;8.40;7.60;;;14.10;68.90;;;;;;5069429;28;20469;-48
2022/03/26 02:32:20;;;;;;;9.83;7.00;;;14.10;68.50;;;;;;5069257;28;20437;-47
2022/03/26 02:34:49;;;;;;;9.37;7.73;;;14.10;68.40;;;;;;5069234;28;20465;-47
2022/03/26 02:37:30;;;;;;;8.33;7.10;;;14.10;68.40;;;;;;5068179;28;20445;-47
2022/03/26 02:39:59;;;;;;;8.60;7.17;;;14.10;68.40;;;;;;5049509;28;20833;-47
2022/03/26 02:42:28;;;;;;;8.50;7.00;;;14.10;68.30;;;;;;5052644;28;20467;-48
2022/03/26 02:44:56;;;;;;;9.20;6.57;;;14.10;68.30;;;;;;5049137;28;20462;-48
2022/03/26 02:47:24;;;;;;;8.37;7.57;;;14.10;68.20;;;;;;5064913;28;20494;-47
2022/03/26 02:49:52;;;;;;;10.03;8.47;;;14.10;68.30;;;;;;5069211;28;20469;-46
2022/03/26 02:52:22;;;;;;;10.30;6.93;;;14.10;68.10;;;;;;5069513;28;20445;-46
2022/03/26 02:54:52;;;;;;;8.07;7.27;;;14.00;68.30;;;;;;5068665;28;20474;-48
2022/03/26 02:57:20;;;;;;;7.73;6.93;;;14.10;68.30;;;;;;5069589;28;20440;-47
2022/03/26 02:59:48;;;;;;;9.73;7.50;;;14.10;68.30;;;;;;5055150;28;20477;-48
2022/03/26 03:02:16;;;;;;;9.07;7.30;;;14.10;68.20;;;;;;5069927;28;20986;-48
2022/03/26 03:04:44;;;;;;;10.60;8.27;;;14.10;68.20;;;;;;5068547;28;20913;-49
2022/03/26 03:07:12;;;;;;;10.70;7.50;;;14.10;68.20;;;;;;5069302;28;20440;-48
2022/03/26 03:09:40;;;;;;;9.50;6.87;;;14.10;68.30;;;;;;5069762;28;20499;-49
2022/03/26 03:12:11;;;;;;;11.60;8.43;;;14.00;68.20;;;;;;5066482;28;20990;-48
2022/03/26 03:14:39;;;;;;;7.57;6.50;;;14.00;68.10;;;;;;5064726;28;20940;-47
2022/03/26 03:17:07;;;;;;;8.03;7.23;;;14.00;68.10;;;;;;5072950;28;20448;-48
2022/03/26 03:19:35;;;;;;;7.10;6.50;;;14.00;68.10;;;;;;5072047;28;20490;-47
2022/03/26 03:22:04;;;;;;;8.77;7.23;;;14.00;68.10;;;;;;5072717;28;20449;-46
2022/03/26 03:24:32;;;;;;;8.00;6.63;;;14.00;68.10;;;;;;5072033;28;20461;-49
2022/03/26 03:27:00;;;;;;;8.63;7.77;;;14.00;68.20;;;;;;5055633;28;20482;-49
2022/03/26 03:29:49;;;;;;;8.80;6.70;;;14.00;68.00;;;;;;5072709;28;20575;-48
2022/03/26 03:32:32;;;;;;;11.60;7.70;;;14.00;68.30;;;;;;5071916;28;21010;-48
2022/03/26 03:35:00;;;;;;;8.70;7.70;;;14.00;68.40;;;;;;5072528;28;20460;-46
2022/03/26 03:37:28;;;;;;;9.80;8.43;;;14.00;68.30;;;;;;5071637;28;20434;-49
2022/03/26 03:39:56;;;;;;;10.13;7.10;;;14.00;68.20;;;;;;5072654;28;20481;-48
2022/03/26 03:42:24;;;;;;;8.40;7.53;;;14.00;68.30;;;;;;5072771;28;20424;-48
2022/03/26 03:44:54;;;;;;;7.90;7.00;;;14.00;68.10;;;;;;5052449;28;20523;-49
2022/03/26 03:47:22;;;;;;;7.67;6.87;;;14.00;68.30;;;;;;5060180;28;20947;-48
2022/03/26 03:49:50;;;;;;;8.77;7.87;;;14.00;68.20;;;;;;5052036;28;20878;-48
2022/03/26 03:52:18;;;;;;;13.63;8.57;;;13.90;68.20;;;;;;5058522;28;20449;-48
2022/03/26 03:54:46;;;;;;;8.30;7.13;;;13.90;68.20;;;;;;5069449;28;20460;-47
2022/03/26 03:57:14;;;;;;;8.30;7.50;;;13.90;68.20;;;;;;5053199;28;20807;-47
2022/03/26 03:59:42;;;;;;;8.03;7.23;;;13.90;68.10;;;;;;5051787;28;20486;-47
2022/03/26 04:02:12;;;;;;;8.83;7.50;;;13.90;68.10;;;;;;5065867;28;20491;-48
2022/03/26 04:04:42;;;;;;;7.97;6.37;;;13.90;68.30;;;;;;5065570;28;20479;-49
2022/03/26 04:07:10;;;;;;;9.70;7.83;;;13.90;68.40;;;;;;5071700;28;20441;-47
2022/03/26 04:09:38;;;;;;;7.40;6.70;;;13.90;68.30;;;;;;5071515;28;20492;-45
2022/03/26 04:12:08;;;;;;;8.23;7.30;;;13.90;68.20;;;;;;5072887;28;20425;-49
2022/03/26 04:14:43;;;;;;;8.50;6.40;;;13.90;68.40;;;;;;5071335;28;20468;-46
2022/03/26 04:17:13;;;;;;;7.67;6.87;;;13.90;68.40;;;;;;5071859;28;20452;-47
2022/03/26 04:19:41;;;;;;;7.73;6.93;;;13.90;68.60;;;;;;5051384;28;20466;-48
2022/03/26 04:22:10;;;;;;;8.73;7.57;;;13.90;68.60;;;;;;5056595;28;20956;-48
2022/03/26 04:24:40;;;;;;;9.97;7.13;;;13.90;68.70;;;;;;5070762;28;20453;-49
2022/03/26 04:27:08;;;;;;;8.00;7.20;;;13.90;68.50;;;;;;5071221;28;20449;-48
2022/03/26 04:29:36;;;;;;;9.73;6.90;;;13.90;68.60;;;;;;5053158;28;20498;-48
2022/03/26 04:32:05;;;;;;;8.03;7.10;;;13.80;68.70;;;;;;5072427;28;20848;-48
2022/03/26 04:34:36;;;;;;;7.17;6.47;;;13.80;68.70;;;;;;5070490;28;20508;-48
2022/03/26 04:37:05;;;;;;;8.70;7.50;;;13.80;68.60;;;;;;5069108;28;20441;-49
2022/03/26 04:39:33;;;;;;;7.80;6.90;;;13.80;68.50;;;;;;5051809;28;21060;-47
2022/03/26 04:42:01;;;;;;;12.30;8.20;;;13.80;68.60;;;;;;5071907;28;20827;-47
2022/03/26 04:44:29;;;;;;;9.00;8.07;;;13.80;68.60;;;;;;5051070;28;20817;-47
2022/03/26 04:46:57;;;;;;;10.80;8.23;;;13.80;68.50;;;;;;5058411;28;20461;-49
2022/03/26 04:49:26;;;;;;;9.57;7.67;;;13.80;70.00;;;;;;5071078;28;20896;-47
2022/03/26 04:51:55;;;;;;;10.27;7.80;;;13.80;68.40;;;;;;5053176;28;20509;-48
2022/03/26 04:54:23;;;;;;;8.90;7.20;;;13.80;68.50;;;;;;5052405;28;20523;-47
2022/03/26 04:56:52;;;;;;;8.37;7.57;;;13.80;68.50;;;;;;5052217;28;20926;-51
2022/03/26 04:59:20;;;;;;;8.13;6.57;;;13.70;68.50;;;;;;5050799;28;20986;-50
2022/03/26 05:01:48;;;;;;;8.30;6.50;;;13.80;68.60;;;;;;5063889;28;21007;-48
2022/03/26 05:04:16;;;;;;;8.60;7.70;;;13.80;68.70;;;;;;5052614;28;20473;-50
2022/03/26 05:06:44;;;;;;;8.47;7.43;;;13.80;68.70;;;;;;5052355;28;20432;-50
2022/03/26 05:09:14;;;;;;;8.50;6.80;;;13.80;68.70;;;;;;5055522;28;20476;-49
2022/03/26 05:11:42;;;;;;;8.50;7.70;;;13.70;68.60;;;;;;5051272;28;20483;-47
2022/03/26 05:14:10;;;;;;;11.27;8.47;;;13.70;68.60;;;;;;5050623;28;20497;-46
2022/03/26 05:16:38;;;;;;;7.30;6.60;;;13.70;68.60;;;;;;5055473;28;20445;-47
2022/03/26 05:19:06;;;;;;;7.03;6.33;;;13.70;68.60;;;;;;5051115;28;20476;-47
2022/03/26 05:21:34;;;;;;;7.30;6.57;;;13.70;68.90;;;;;;5050714;28;20429;-48
2022/03/26 05:24:02;;;;;;;8.37;7.47;;;13.70;68.80;;;;;;5050292;28;20500;-47
2022/03/26 05:26:32;;;;;;;8.03;6.87;;;13.70;68.80;;;;;;5061274;28;20433;-47
2022/03/26 05:29:00;;;;;;;9.97;7.60;;;13.70;68.90;;;;;;5070816;28;20468;-46
2022/03/26 05:31:30;;;;;;;7.40;6.70;;;13.70;69.00;;;;;;5069746;28;20479;-47
2022/03/26 05:33:58;;;;;;;7.43;6.70;;;13.70;68.90;;;;;;5070012;28;20463;-49
2022/03/26 05:36:26;;;;;;;7.80;7.10;;;13.70;68.90;;;;;;5062603;28;20446;-48
2022/03/26 05:38:54;;;;;;;9.60;7.70;;;13.70;69.10;;;;;;5069659;28;20534;-48
2022/03/26 05:41:24;;;;;;;9.17;7.63;;;13.60;69.10;;;;;;5038374;28;20431;-47
2022/03/26 05:43:53;;;;;;;8.10;7.30;;;13.60;69.00;;;;;;5070615;28;20476;-49
2022/03/26 05:46:21;;;;;;;7.27;6.43;;;13.60;69.10;;;;;;5065024;28;20444;-50
2022/03/26 05:48:52;;;;;;;7.83;6.50;;;13.60;69.00;;;;;;5063648;28;20905;-48
2022/03/26 05:51:20;;;;;;;7.77;6.97;;;13.60;68.80;;;;;;5050860;28;20808;-49
2022/03/26 05:53:49;;;;;;;8.20;6.53;;;13.60;68.90;;;;;;5068224;28;20559;-47
2022/03/26 05:56:17;;;;;;;7.90;7.10;;;13.60;68.90;;;;;;5066380;28;20448;-47
2022/03/26 05:58:45;;;;;;;8.60;7.00;;;13.60;68.90;;;;;;5053785;28;20558;-48
2022/03/26 06:01:15;;;;;;;8.60;6.90;;;13.60;69.10;;;;;;5058963;28;20831;-46
2022/03/26 06:03:43;;;;;;;10.83;8.30;;;13.60;69.00;;;;;;5051986;28;20464;-47
2022/03/26 06:06:11;;;;;;;8.67;6.93;;;13.60;69.00;;;;;;5050419;28;20456;-45
2022/03/26 06:08:39;;;;;;;8.43;7.57;;;13.60;69.00;;;;;;5066947;28;20522;-47
2022/03/26 06:11:08;;;;;;;11.07;8.10;;;13.60;68.80;;;;;;5070220;28;20841;-47
2022/03/26 06:13:36;;;;;;;8.40;7.20;;;13.60;68.80;;;;;;5066905;28;20480;-46
2022/03/26 06:16:04;;;;;;;8.73;7.23;;;13.60;68.90;;;;;;5070189;28;20425;-47
2022/03/26 06:18:34;;;;;;;10.00;8.17;;;13.60;69.00;;;;;;5057092;28;20469;-48
2022/03/26 06:21:05;;;;;;;10.47;7.57;;;13.60;69.00;;;;;;5041073;28;20436;-48
2022/03/26 06:23:34;;;;;;;8.30;7.50;;;13.60;68.90;;;;;;5052072;28;20836;-47
2022/03/26 06:26:02;;;;;;;9.67;7.73;;;13.50;68.70;;;;;;5056436;28;20463;-49
2022/03/26 06:28:30;;;;;;;7.87;7.07;;;13.50;68.60;;;;;;5048627;28;20460;-48
2022/03/26 06:30:59;;;;;;;9.80;8.27;;;13.50;68.60;;;;;;5035781;28;20765;-47
2022/03/26 06:33:27;;;;;;;8.73;7.63;;;13.50;68.70;;;;;;5069671;28;20462;-49
2022/03/26 06:35:56;;;;;;;8.60;6.80;;;13.50;68.60;;;;;;5064633;28;20460;-45
2022/03/26 06:38:28;;;;;;;8.80;7.60;;;13.50;68.60;;;;;;5052932;28;20986;-49
2022/03/26 06:40:56;;;;;;;7.80;7.00;;;13.50;68.70;;;;;;5067292;28;20931;-47
2022/03/26 06:43:25;;;;;;;8.07;7.27;;;13.50;68.60;;;;;;5063996;28;20485;-47
2022/03/26 06:45:53;;;;;;;7.90;7.03;;;13.50;68.70;;;;;;5066799;28;20448;-46
2022/03/26 06:48:21;;;;;;;10.00;8.00;;;13.50;68.70;;;;;;5059630;28;20498;-49
2022/03/26 06:50:51;;;;;;;8.77;7.43;;;13.50;68.50;;;;;;5073916;28;20686;-48
2022/03/26 06:53:21;;;;;;;8.43;7.53;;;13.50;68.40;;;;;;5058841;28;20468;-49
2022/03/26 06:55:49;;;;;;;8.10;7.20;;;13.50;68.40;;;;;;5053534;28;20971;-46
2022/03/26 06:58:17;;;;;;;7.07;6.37;;;13.50;68.60;;;;;;5052944;28;20452;-48
2022/03/26 07:00:45;;;;;;;8.37;7.33;;;13.50;68.60;;;;;;5068808;28;20878;-49
2022/03/26 07:03:13;;;;;;;7.97;6.20;;;13.50;68.50;;;;;;5057315;28;20535;-48
2022/03/26 07:05:44;;;;;;;7.40;6.27;;;13.50;68.60;;;;;;5052975;28;20519;-49
2022/03/26 07:08:12;;;;;;;7.50;6.53;;;13.50;68.50;;;;;;5066653;28;20447;-47
2022/03/26 07:10:45;;;;;;;7.67;6.87;;;13.50;68.60;;;;;;5074097;28;20438;-46
2022/03/26 07:13:13;;;;;;;8.07;6.77;;;13.50;68.60;;;;;;5051864;28;20470;-47
2022/03/26 07:15:41;;;;;;;8.27;7.17;;;13.50;68.60;;;;;;5065674;28;20446;-46
2022/03/26 07:18:11;;;;;;;8.00;7.23;;;13.50;68.60;;;;;;5034032;28;20429;-47
2022/03/26 07:20:39;;;;;;;6.80;6.10;;;13.50;68.90;;;;;;5053696;28;20433;-48
2022/03/26 07:23:10;;;;;;;7.30;6.60;;;13.50;68.90;;;;;;5056941;28;20461;-48
2022/03/26 07:25:38;;;;;;;8.13;6.03;;;13.50;69.00;;;;;;5054298;28;20471;-48
2022/03/26 07:28:08;;;;;;;8.30;6.60;;;13.50;69.00;;;;;;5053345;28;20476;-48
2022/03/26 07:30:36;;;;;;;7.60;6.80;;;13.50;69.20;;;;;;5052933;28;20441;-50
2022/03/26 07:33:05;;;;;;;10.60;9.50;;;13.50;69.20;;;;;;5063408;28;20554;-47
2022/03/26 07:35:36;;;;;;;34.67;22.37;;;13.50;68.40;;;;;;5057464;28;20448;-48
2022/03/26 07:38:04;;;;;;;26.07;18.27;;;13.40;61.80;;;;;;5059487;28;20824;-49
2022/03/26 07:40:32;;;;;;;18.00;13.97;;;13.40;63.70;;;;;;5072369;28;20515;-48
2022/03/26 07:43:00;;;;;;;22.17;14.93;;;13.40;65.60;;;;;;5071549;28;20479;-50
2022/03/26 07:45:30;;;;;;;17.73;14.13;;;13.40;66.40;;;;;;5072430;28;20475;-49
2022/03/26 07:47:59;;;;;;;21.20;14.63;;;13.40;66.60;;;;;;5060751;28;20542;-47
2022/03/26 07:50:27;;;;;;;15.67;12.57;;;13.40;67.20;;;;;;5070329;28;20475;-48
2022/03/26 07:52:55;;;;;;;18.23;13.57;;;13.40;67.30;;;;;;5065582;28;20498;-46
2022/03/26 07:55:23;;;;;;;16.40;12.20;;;13.40;67.60;;;;;;5051624;28;20479;-47
2022/03/26 07:57:54;;;;;;;16.83;12.07;;;13.50;68.00;;;;;;5061335;28;20468;-45
2022/03/26 08:00:22;;;;;;;15.53;11.50;;;13.50;68.10;;;;;;5070864;28;21216;-47
2022/03/26 08:02:52;;;;;;;16.10;11.80;;;13.50;68.20;;;;;;5072568;28;20482;-49
2022/03/26 08:05:21;;;;;;;13.93;11.97;;;13.50;68.30;;;;;;5068503;28;20851;-46
2022/03/26 08:07:49;;;;;;;14.43;11.33;;;13.50;68.40;;;;;;5062177;28;20916;-50
2022/03/26 08:10:17;;;;;;;13.90;10.70;;;13.50;69.60;;;;;;5052388;28;20669;-47
2022/03/26 08:12:47;;;;;;;13.43;10.80;;;13.50;68.40;;;;;;5052615;28;20491;-47
2022/03/26 08:15:16;;;;;;;13.93;11.47;;;13.50;68.30;;;;;;5060325;28;20463;-48
2022/03/26 08:17:44;;;;;;;15.10;11.20;;;13.50;68.40;;;;;;5068002;28;20938;-48
2022/03/26 08:20:14;;;;;;;16.97;11.57;;;13.50;68.30;;;;;;5066827;28;20472;-48
2022/03/26 08:22:42;;;;;;;15.33;11.53;;;13.50;68.40;;;;;;5059722;28;20515;-47
2022/03/26 08:25:10;;;;;;;15.40;12.10;;;13.50;68.40;;;;;;5056290;28;20471;-47
2022/03/26 08:27:39;;;;;;;14.57;11.43;;;13.50;68.30;;;;;;5063205;28;20441;-48
2022/03/26 08:30:08;;;;;;;15.07;11.17;;;13.50;68.40;;;;;;5052558;28;20470;-48
2022/03/26 08:32:36;;;;;;;14.30;11.40;;;13.50;68.40;;;;;;5064469;28;20486;-46
2022/03/26 08:35:05;;;;;;;29.27;14.23;;;13.50;68.40;;;;;;5057114;28;20501;-48
2022/03/26 08:37:35;;;;;;;16.23;10.50;;;13.60;68.20;;;;;;5057904;28;20445;-48
2022/03/26 08:40:04;;;;;;;15.90;12.53;;;13.60;68.20;;;;;;5066780;28;20571;-49
2022/03/26 08:42:32;;;;;;;17.20;12.10;;;13.50;68.10;;;;;;5066716;28;20445;-46
2022/03/26 08:45:00;;;;;;;14.87;10.00;;;13.60;68.40;;;;;;5069717;28;20468;-47
2022/03/26 08:47:29;;;;;;;12.33;10.37;;;13.60;68.20;;;;;;5071928;28;20967;-48
2022/03/26 08:49:57;;;;;;;14.80;11.00;;;13.60;68.00;;;;;;5050633;28;20514;-47
2022/03/26 08:52:25;;;;;;;14.50;10.40;;;13.60;68.00;;;;;;5051010;28;20447;-47
2022/03/26 08:54:54;;;;;;;11.27;10.07;;;13.60;68.20;;;;;;5051067;28;20522;-47
2022/03/26 08:57:23;;;;;;;13.93;11.27;;;13.60;68.30;;;;;;5062100;28;20436;-49
2022/03/26 08:59:52;;;;;;;12.93;10.33;;;13.60;68.20;;;;;;5070820;28;20476;-48
2022/03/26 09:02:20;;;;;;;13.50;9.40;;;13.50;68.20;;;;;;5067595;28;20459;-51
2022/03/26 09:04:49;;;;;;;11.97;10.03;;;13.60;68.40;;;;;;5060203;28;20524;-49
2022/03/26 09:07:17;;;;;;;12.10;9.07;;;13.50;68.40;;;;;;5056037;28;20465;-49
2022/03/26 09:09:46;;;;;;;13.07;10.70;;;13.50;68.30;;;;;;5042321;28;20527;-47
2022/03/26 09:12:17;;;;;;;12.70;10.40;;;13.50;68.30;;;;;;5033724;28;20444;-50
2022/03/26 09:14:46;;;;;;;11.33;10.13;;;13.50;68.40;;;;;;5052750;28;20494;-47
2022/03/26 09:17:14;;;;;;;11.30;9.70;;;13.50;68.30;;;;;;5056213;28;20448;-48
2022/03/26 09:19:42;;;;;;;11.00;9.23;;;13.50;68.50;;;;;;5050569;28;20542;-49
2022/03/26 09:22:11;;;;;;;12.50;10.33;;;13.50;68.40;;;;;;5056087;28;20434;-48
2022/03/26 09:24:39;;;;;;;9.27;8.37;;;13.50;68.60;;;;;;5059227;28;20474;-48
2022/03/26 09:27:07;;;;;;;12.10;9.30;;;13.50;68.60;;;;;;5051339;28;20449;-47
2022/03/26 09:29:44;;;;;;;12.30;9.37;;;13.50;68.60;;;;;;5073783;27;20555;-47
2022/03/26 09:32:13;;;;;;;12.50;9.07;;;13.50;68.70;;;;;;5051589;28;20461;-48
2022/03/26 09:34:41;;;;;;;12.17;8.63;;;13.50;68.70;;;;;;5031571;28;20474;-47
2022/03/26 09:37:10;;;;;;;11.23;8.80;;;13.50;68.80;;;;;;5022110;28;20443;-47
2022/03/26 09:39:38;;;;;;;11.40;9.07;;;13.50;68.80;;;;;;5023128;28;20523;-49
2022/03/26 09:42:09;;;;;;;11.23;9.93;;;13.50;68.90;;;;;;5027303;28;20466;-46
2022/03/26 09:44:38;;;;;;;9.47;8.40;;;13.50;68.80;;;;;;5026062;28;20477;-47
2022/03/26 09:47:08;;;;;;;11.00;9.07;;;13.50;68.90;;;;;;5010316;28;20832;-47
2022/03/26 09:49:38;;;;;;;9.30;8.20;;;13.50;68.90;;;;;;5032564;28;20477;-49
2022/03/26 09:52:07;;;;;;;9.40;8.50;;;13.50;68.90;;;;;;5022376;28;20934;-48
2022/03/26 09:54:37;;;;;;;10.63;8.47;;;13.50;69.00;;;;;;5021615;28;20501;-49
2022/03/26 09:57:06;;;;;;;9.93;8.40;;;13.50;69.10;;;;;;5027495;28;20949;-46
2022/03/26 09:59:34;;;;;;;10.20;9.00;;;13.50;69.00;;;;;;5028569;28;20464;-48
2022/03/26 10:02:03;;;;;;;10.33;8.30;;;13.50;69.00;;;;;;5028273;28;21003;-46
2022/03/26 10:04:39;;;;;;;10.57;8.50;;;13.50;69.10;;;;;;5031753;28;20495;-48
2022/03/26 10:07:08;;;;;;;9.50;8.50;;;13.50;69.10;;;;;;5024677;28;20507;-49
2022/03/26 10:09:37;;;;;;;9.87;8.83;;;13.50;69.20;;;;;;5026223;28;20558;-47
2022/03/26 10:12:10;;;;;;;8.13;7.33;;;13.50;69.20;;;;;;5026695;28;20430;-49
2022/03/26 10:14:41;;;;;;;10.17;8.43;;;13.50;69.20;;;;;;5024888;28;20481;-48
2022/03/26 10:17:14;;;;;;;8.43;7.60;;;13.50;69.20;;;;;;5023469;28;20818;-47
2022/03/26 10:19:45;;;;;;;10.00;8.60;;;13.50;69.30;;;;;;5024734;28;20482;-47
2022/03/26 10:22:30;;;;;;;8.03;7.30;;;13.50;69.30;;;;;;5019609;28;20443;-46
2022/03/26 10:25:00;;;;;;;9.10;7.77;;;13.50;69.40;;;;;;5030839;28;20562;-48
2022/03/26 10:27:32;;;;;;;10.40;8.47;;;13.50;69.40;;;;;;5036314;28;20496;-47
2022/03/26 10:30:00;;;;;;;8.70;7.90;;;13.50;69.30;;;;;;5022113;28;20512;-49
2022/03/26 10:32:39;;;;;;;8.83;7.93;;;13.50;69.40;;;;;;5021009;28;20455;-47
2022/03/26 10:35:19;;;;;;;11.13;8.20;;;13.50;69.40;;;;;;5022637;28;21059;-47
2022/03/26 10:37:56;;;;;;;11.27;8.90;;;13.50;69.50;;;;;;5018599;28;20441;-46
2022/03/26 10:40:32;;;;;;;10.83;8.97;;;13.50;69.50;;;;;;5015033;28;20474;-48
2022/03/26 10:43:07;;;;;;;8.30;7.50;;;13.50;69.60;;;;;;5013480;28;20542;-48
2022/03/26 10:45:37;;;;;;;8.63;7.30;;;13.50;69.60;;;;;;5011824;28;20465;-47
2022/03/26 10:48:10;;;;;;;9.77;7.90;;;13.50;69.70;;;;;;5027098;28;20484;-47
2022/03/26 10:50:41;;;;;;;9.73;8.70;;;13.40;69.50;;;;;;5012307;28;20468;-48
2022/03/26 10:53:11;;;;;;;8.03;7.30;;;13.50;69.70;;;;;;4999219;28;20843;-48
2022/03/26 10:55:40;;;;;;;12.57;8.60;;;13.50;69.70;;;;;;5007989;28;20434;-47
2022/03/26 10:58:09;;;;;;;8.93;8.03;;;13.50;69.80;;;;;;5033512;28;20964;-49
2022/03/26 11:00:37;;;;;;;11.57;8.17;;;13.50;69.90;;;;;;5015796;28;20448;-48
2022/03/26 11:03:06;;;;;;;10.40;8.23;;;13.50;69.80;;;;;;4994285;28;20487;-47
2022/03/26 11:05:35;;;;;;;8.10;7.30;;;13.50;69.90;;;;;;5012240;28;20451;-46
2022/03/26 11:08:05;;;;;;;11.83;7.77;;;13.50;70.00;;;;;;5000671;28;20452;-50
2022/03/26 11:10:34;;;;;;;8.93;8.00;;;13.50;70.00;;;;;;5011922;28;20480;-47
2022/03/26 11:13:03;;;;;;;11.10;8.07;;;13.50;70.00;;;;;;5013071;28;20447;-46
2022/03/26 11:15:37;;;;;;;9.50;7.77;;;13.50;70.00;;;;;;5003597;28;21015;-47
2022/03/26 11:18:29;;;;;;;9.80;8.30;;;13.50;70.00;;;;;;4993921;28;20492;-46
2022/03/26 11:21:34;;;;;;;10.00;7.30;;;13.50;70.10;;;;;;5027211;28;20457;-49
2022/03/26 11:24:26;;;;;;;10.50;9.00;;;13.50;70.10;;;;;;4998678;28;20474;-45
2022/03/26 11:27:09;;;;;;;9.20;8.30;;;13.50;70.10;;;;;;4979145;28;20993;-48
2022/03/26 11:29:52;;;;;;;12.00;8.70;;;13.50;70.10;;;;;;5032039;28;21009;-48
2022/03/26 11:32:27;;;;;;;9.63;7.90;;;13.50;70.20;;;;;;5009378;28;20447;-46
2022/03/26 11:34:58;;;;;;;12.53;7.70;;;13.50;70.00;;;;;;5004203;28;20553;-47
2022/03/26 11:37:28;;;;;;;9.90;7.87;;;13.50;70.10;;;;;;5010220;28;20556;-45
2022/03/26 11:39:58;;;;;;;9.50;8.27;;;13.50;70.30;;;;;;5012216;28;20471;-48
2022/03/26 11:42:35;;;;;;;8.77;7.80;;;13.50;70.30;;;;;;5015923;28;20931;-48
2022/03/26 11:51:15;;;;;;;9.87;7.80;;;13.50;70.50;;;;;;5011076;28;20688;-47
2022/03/26 11:53:45;;;;;;;10.90;8.30;;;13.50;70.50;;;;;;5009085;28;20467;-46
2022/03/26 11:56:23;;;;;;;7.83;6.73;;;13.50;70.40;;;;;;5015165;28;20458;-48
2022/03/26 11:59:08;;;;;;;9.40;7.77;;;13.50;70.40;;;;;;5011371;28;20458;-46
2022/03/26 12:01:37;;;;;;;9.60;8.60;;;13.50;70.40;;;;;;4999383;28;20538;-48
2022/03/26 12:04:10;;;;;;;9.27;7.50;;;13.50;70.30;;;;;;5005833;28;20533;-47
2022/03/26 12:06:43;;;;;;;9.60;7.90;;;13.50;70.40;;;;;;5009516;28;20594;-47
2022/03/26 12:09:12;;;;;;;8.33;7.53;;;13.50;70.50;;;;;;4991805;28;20475;-47
2022/03/26 12:12:17;;;;;;;8.80;6.60;;;13.50;70.50;;;;;;4993909;28;20423;-49
2022/03/26 12:15:24;;;;;;;10.53;8.50;;;13.50;70.50;;;;;;5009811;28;21014;-48
2022/03/26 12:17:54;;;;;;;11.17;8.20;;;13.50;70.60;;;;;;5002515;28;20482;-46
2022/03/26 12:20:26;;;;;;;9.40;8.50;;;13.50;70.60;;;;;;5010155;28;20457;-49
2022/03/26 12:23:04;;;;;;;7.90;7.10;;;13.50;70.70;;;;;;5005977;28;20471;-48
2022/03/26 12:25:34;;;;;;;8.00;7.07;;;13.50;70.70;;;;;;5010360;28;20477;-49
2022/03/26 12:28:04;;;;;;;7.93;7.17;;;13.60;70.80;;;;;;5025229;28;20868;-47
2022/03/26 12:30:32;;;;;;;10.03;7.87;;;13.60;70.90;;;;;;5016823;28;20479;-47
2022/03/26 12:33:08;;;;;;;8.80;7.90;;;13.60;70.70;;;;;;5009732;28;20467;-45
2022/03/26 12:35:36;;;;;;;8.13;7.33;;;13.60;70.80;;;;;;5014878;28;20539;-47
2022/03/26 12:38:06;;;;;;;9.03;8.13;;;13.60;70.80;;;;;;5015928;28;20500;-47
2022/03/26 12:40:34;;;;;;;8.10;6.93;;;13.60;70.90;;;;;;5019041;28;20525;-47
2022/03/26 12:43:04;;;;;;;9.87;7.17;;;13.60;71.00;;;;;;5010744;28;20459;-48
2022/03/26 12:45:32;;;;;;;7.80;7.00;;;13.60;71.00;;;;;;5007982;28;20539;-47
2022/03/26 12:48:00;;;;;;;9.30;8.00;;;13.60;70.90;;;;;;5000124;28;20439;-46
2022/03/26 12:50:38;;;;;;;8.43;7.53;;;13.60;70.90;;;;;;5008790;28;21002;-47
2022/03/26 12:53:11;;;;;;;7.47;6.77;;;13.60;71.00;;;;;;5010190;28;20474;-45
2022/03/26 12:55:40;;;;;;;8.77;7.27;;;13.60;71.00;;;;;;5008906;28;20672;-47
2022/03/26 13:01:04;;;;;;;8.47;7.57;;;13.60;70.90;;;;;;5007084;28;20882;-47
2022/03/26 13:03:34;;;;;;;9.80;8.27;;;13.60;71.00;;;;;;5004929;28;20478;-47
2022/03/26 13:06:06;;;;;;;8.60;7.47;;;13.60;71.00;;;;;;5008609;28;20447;-47
2022/03/26 13:08:42;;;;;;;9.43;7.73;;;13.70;71.20;;;;;;4993646;28;20476;-49